Time;durP1;ratioP1;P1;durP2;ratioP2;P2;SDS_P1;SDS_P2;PMS_P1;PMS_P2;Temp;Humidity;BMP_temperature;BMP_pressure;BME280_temperature;BME280_humidity;BME280_pressure;Samples;Min_cycle;Max_cycle;Signal;HPM_P1;HPM_P2
2023/04/09 00:02:13;;;;;;;4.63;1.10;;;;;;;;;;4996037;28;20034;-61
2023/04/09 00:04:42;;;;;;;6.10;0.75;;;;;;;;;;4975372;28;20462;-62
2023/04/09 00:07:09;;;;;;;10.20;0.90;;;;;;;;;;4996420;28;20417;-63
2023/04/09 00:09:36;;;;;;;4.30;0.82;;;;;;;;;;4994652;28;20041;-63
2023/04/09 00:12:02;;;;;;;5.35;0.98;;;;;;;;;;4996808;28;20044;-61
2023/04/09 00:14:29;;;;;;;7.45;1.83;;;;;;;;;;4977753;28;20495;-61
2023/04/09 00:16:56;;;;;;;16.15;4.82;;;;;;;;;;4996452;28;20064;-62
2023/04/09 00:19:22;;;;;;;6.90;1.50;;;;;;;;;;4978078;28;20049;-61
2023/04/09 00:21:49;;;;;;;4.20;0.88;;;;;;;;;;4976088;28;20046;-62
2023/04/09 00:24:16;;;;;;;3.75;0.60;;;;;;;;;;4973193;28;20038;-61
2023/04/09 00:26:42;;;;;;;4.60;1.17;;;;;;;;;;4975254;28;20039;-63
2023/04/09 00:29:09;;;;;;;9.57;0.95;;;;;;;;;;4975027;28;20108;-60
2023/04/09 00:31:36;;;;;;;3.70;0.90;;;;;;;;;;4973661;28;20140;-63
2023/04/09 00:34:02;;;;;;;4.72;0.90;;;;;;;;;;4974501;28;20035;-61
2023/04/09 00:36:29;;;;;;;6.05;0.80;;;;;;;;;;4975684;28;20042;-61
2023/04/09 00:38:57;;;;;;;6.07;1.00;;;;;;;;;;4978426;28;20042;-60
2023/04/09 00:41:24;;;;;;;4.53;0.80;;;;;;;;;;4977056;28;20069;-61
2023/04/09 00:43:50;;;;;;;9.60;1.25;;;;;;;;;;4978913;28;20058;-61
2023/04/09 00:46:17;;;;;;;6.22;1.23;;;;;;;;;;4979269;28;20046;-62
2023/04/09 00:48:44;;;;;;;3.78;0.98;;;;;;;;;;4978553;28;20161;-63
2023/04/09 00:51:10;;;;;;;4.80;0.90;;;;;;;;;;4975846;28;20038;-60
2023/04/09 00:53:37;;;;;;;5.63;1.08;;;;;;;;;;4989094;28;20046;-62
2023/04/09 00:56:05;;;;;;;5.75;0.70;;;;;;;;;;4978755;28;20044;-62
2023/04/09 00:58:31;;;;;;;5.35;1.00;;;;;;;;;;4975636;28;20045;-62
2023/04/09 01:00:58;;;;;;;4.93;0.90;;;;;;;;;;4976101;28;20039;-62
2023/04/09 01:03:25;;;;;;;7.03;1.30;;;;;;;;;;4992860;28;20034;-65
2023/04/09 01:05:55;;;;;;;3.15;0.80;;;;;;;;;;4990248;28;20045;-61
2023/04/09 01:08:39;;;;;;;5.07;0.90;;;;;;;;;;4976984;28;20050;-62
2023/04/09 01:11:35;;;;;;;3.95;0.90;;;;;;;;;;4975468;28;20517;-63
2023/04/09 01:14:22;;;;;;;7.90;0.90;;;;;;;;;;4960150;28;20116;-62
2023/04/09 01:16:52;;;;;;;5.63;1.10;;;;;;;;;;4964655;28;20104;-60
2023/04/09 01:19:25;;;;;;;5.57;0.80;;;;;;;;;;4978175;28;20049;-63
2023/04/09 01:21:53;;;;;;;6.63;0.90;;;;;;;;;;4977960;28;21930;-62
2023/04/09 01:24:52;;;;;;;3.22;0.88;;;;;;;;;;4976817;28;20335;-65
2023/04/09 01:27:18;;;;;;;6.38;0.68;;;;;;;;;;4942315;28;20046;-67
2023/04/09 01:29:47;;;;;;;7.78;1.05;;;;;;;;;;4976861;28;20105;-63
2023/04/09 01:32:14;;;;;;;3.95;0.75;;;;;;;;;;4978128;28;20042;-63
2023/04/09 01:34:41;;;;;;;3.90;1.15;;;;;;;;;;4977082;28;20573;-61
2023/04/09 01:37:08;;;;;;;5.90;0.65;;;;;;;;;;4969629;28;20053;-64
2023/04/09 01:39:37;;;;;;;1.58;0.50;;;;;;;;;;4991605;28;20093;-63
2023/04/09 01:42:04;;;;;;;6.43;0.70;;;;;;;;;;4977879;28;20038;-63
2023/04/09 01:44:31;;;;;;;2.42;0.63;;;;;;;;;;4976062;28;20046;-63
2023/04/09 01:46:59;;;;;;;4.90;0.60;;;;;;;;;;4976740;28;20632;-63
2023/04/09 01:49:25;;;;;;;5.03;0.70;;;;;;;;;;4976916;28;20137;-61
2023/04/09 01:51:52;;;;;;;2.88;0.88;;;;;;;;;;4977150;28;20122;-63
2023/04/09 01:54:19;;;;;;;13.20;1.38;;;;;;;;;;4975997;28;20118;-67
2023/04/09 01:56:48;;;;;;;5.07;0.90;;;;;;;;;;4976824;28;20039;-62
2023/04/09 01:59:15;;;;;;;9.07;0.80;;;;;;;;;;4978091;28;20129;-63
2023/04/09 02:01:49;;;;;;;3.35;0.68;;;;;;;;;;4971745;28;20500;-63
2023/04/09 02:04:19;;;;;;;6.88;0.88;;;;;;;;;;4976909;28;20038;-63
2023/04/09 02:06:53;;;;;;;3.60;0.70;;;;;;;;;;4976492;28;20042;-62
2023/04/09 02:09:21;;;;;;;3.80;0.68;;;;;;;;;;4975936;28;20070;-63
2023/04/09 02:11:48;;;;;;;4.95;0.65;;;;;;;;;;4977006;28;20046;-61
2023/04/09 02:14:15;;;;;;;2.38;0.77;;;;;;;;;;4977004;28;20048;-63
2023/04/09 02:16:42;;;;;;;1.98;0.65;;;;;;;;;;4976612;28;20060;-61
2023/04/09 02:19:08;;;;;;;4.85;0.60;;;;;;;;;;4976740;28;20623;-61
2023/04/09 02:21:35;;;;;;;3.17;0.77;;;;;;;;;;4974754;28;20088;-61
2023/04/09 02:24:01;;;;;;;6.10;0.93;;;;;;;;;;4976752;28;20034;-61
2023/04/09 02:26:28;;;;;;;2.65;0.70;;;;;;;;;;4976134;28;20046;-63
2023/04/09 02:28:55;;;;;;;2.75;0.70;;;;;;;;;;4976673;28;20055;-62
2023/04/09 02:31:21;;;;;;;3.13;0.77;;;;;;;;;;4976215;28;20254;-61
2023/04/09 02:33:48;;;;;;;1.80;0.60;;;;;;;;;;4974789;28;20038;-63
2023/04/09 02:36:15;;;;;;;1.75;0.63;;;;;;;;;;4976876;28;20045;-64
2023/04/09 02:38:41;;;;;;;2.83;0.82;;;;;;;;;;4988277;28;20034;-63
2023/04/09 02:41:08;;;;;;;4.10;0.93;;;;;;;;;;4987138;28;20042;-61
2023/04/09 02:43:35;;;;;;;1.77;0.55;;;;;;;;;;4976277;28;20062;-62
2023/04/09 02:46:02;;;;;;;3.63;0.80;;;;;;;;;;4977193;28;20775;-62
2023/04/09 02:48:28;;;;;;;4.15;0.88;;;;;;;;;;4975023;28;20633;-61
2023/04/09 02:50:55;;;;;;;3.28;0.77;;;;;;;;;;4976598;28;20041;-63
2023/04/09 02:53:22;;;;;;;1.70;0.68;;;;;;;;;;4976402;28;20080;-62
2023/04/09 02:55:48;;;;;;;6.10;1.10;;;;;;;;;;4975226;28;20035;-62
2023/04/09 02:58:15;;;;;;;5.35;1.10;;;;;;;;;;4987035;28;20042;-60
2023/04/09 03:00:42;;;;;;;7.03;1.08;;;;;;;;;;4985498;28;20121;-60
2023/04/09 03:03:08;;;;;;;4.93;0.88;;;;;;;;;;4972874;28;20061;-60
2023/04/09 03:05:35;;;;;;;11.45;1.10;;;;;;;;;;4972912;28;20412;-63
2023/04/09 03:08:21;;;;;;;3.83;1.00;;;;;;;;;;4946956;28;20066;-58
2023/04/09 03:10:48;;;;;;;6.90;0.93;;;;;;;;;;4928912;28;20153;-62
2023/04/09 03:13:15;;;;;;;8.52;1.10;;;;;;;;;;4947128;28;20090;-62
2023/04/09 03:15:41;;;;;;;6.32;0.90;;;;;;;;;;4950178;28;20144;-62
2023/04/09 03:18:08;;;;;;;4.80;0.88;;;;;;;;;;4954832;28;20043;-62
2023/04/09 03:20:38;;;;;;;11.52;1.13;;;;;;;;;;4953740;28;20081;-61
2023/04/09 03:23:04;;;;;;;4.22;0.80;;;;;;;;;;4954119;28;20070;-60
2023/04/09 03:25:31;;;;;;;4.53;0.90;;;;;;;;;;4952423;28;20142;-61
2023/04/09 03:27:58;;;;;;;3.90;0.90;;;;;;;;;;4938135;28;20055;-62
2023/04/09 03:30:24;;;;;;;7.28;0.98;;;;;;;;;;4951949;28;20130;-63
2023/04/09 03:32:51;;;;;;;5.88;0.90;;;;;;;;;;4934963;28;20038;-60
2023/04/09 03:35:18;;;;;;;4.07;1.00;;;;;;;;;;4952219;28;20039;-62
2023/04/09 03:37:44;;;;;;;3.58;1.00;;;;;;;;;;4952130;28;20042;-59
2023/04/09 03:40:11;;;;;;;13.05;1.30;;;;;;;;;;4953071;28;20042;-59
2023/04/09 03:42:38;;;;;;;3.90;1.02;;;;;;;;;;4953633;28;20058;-60
2023/04/09 03:45:05;;;;;;;4.07;0.90;;;;;;;;;;4956766;28;20139;-59
2023/04/09 03:47:33;;;;;;;4.97;0.90;;;;;;;;;;4975275;28;20066;-60
2023/04/09 03:49:59;;;;;;;3.60;0.70;;;;;;;;;;4970122;28;21589;-61
2023/04/09 03:52:26;;;;;;;5.10;1.27;;;;;;;;;;4973353;28;20051;-63
2023/04/09 03:54:53;;;;;;;5.15;0.90;;;;;;;;;;4975554;28;20138;-59
2023/04/09 03:57:19;;;;;;;6.72;1.17;;;;;;;;;;4974935;28;20519;-63
2023/04/09 03:59:46;;;;;;;5.60;1.25;;;;;;;;;;4969319;28;20038;-64
2023/04/09 04:02:13;;;;;;;4.88;1.20;;;;;;;;;;4982058;28;20116;-63
2023/04/09 04:04:40;;;;;;;8.27;1.50;;;;;;;;;;4974266;28;20120;-64
2023/04/09 04:07:07;;;;;;;3.10;0.98;;;;;;;;;;4975285;28;20050;-64
2023/04/09 04:09:34;;;;;;;3.88;0.80;;;;;;;;;;4974215;28;20725;-63
2023/04/09 04:12:02;;;;;;;6.75;1.00;;;;;;;;;;4988168;28;20050;-63
2023/04/09 04:14:28;;;;;;;3.35;0.57;;;;;;;;;;4978371;28;20126;-63
2023/04/09 04:16:55;;;;;;;3.60;0.65;;;;;;;;;;4978890;28;20042;-62
2023/04/09 04:19:21;;;;;;;1.52;0.50;;;;;;;;;;4978088;28;20062;-64
2023/04/09 04:21:48;;;;;;;1.88;0.60;;;;;;;;;;4980960;28;22008;-62
2023/04/09 04:24:15;;;;;;;3.78;0.60;;;;;;;;;;4979546;28;20072;-63
2023/04/09 04:26:41;;;;;;;1.98;0.50;;;;;;;;;;4979464;28;20034;-62
2023/04/09 04:29:08;;;;;;;1.05;0.45;;;;;;;;;;4975535;28;20076;-62
2023/04/09 04:31:34;;;;;;;2.55;0.63;;;;;;;;;;4977883;28;21106;-65
2023/04/09 04:34:01;;;;;;;1.88;0.52;;;;;;;;;;4976288;28;20031;-64
2023/04/09 04:36:28;;;;;;;2.00;0.43;;;;;;;;;;4977762;28;20866;-63
2023/04/09 04:38:54;;;;;;;2.50;0.65;;;;;;;;;;4974697;28;20042;-62
2023/04/09 04:41:21;;;;;;;1.67;0.50;;;;;;;;;;4977546;28;20048;-65
2023/04/09 04:43:48;;;;;;;6.72;0.70;;;;;;;;;;4990139;28;20046;-64
2023/04/09 04:46:14;;;;;;;4.80;0.73;;;;;;;;;;4987631;28;20042;-64
2023/04/09 04:48:41;;;;;;;4.10;0.60;;;;;;;;;;4974241;28;20731;-66
2023/04/09 04:51:08;;;;;;;1.50;0.60;;;;;;;;;;4977177;28;20048;-64
2023/04/09 04:53:34;;;;;;;2.75;0.52;;;;;;;;;;4989247;28;20034;-64
2023/04/09 04:56:01;;;;;;;6.03;0.82;;;;;;;;;;4977705;28;20676;-66
2023/04/09 04:58:29;;;;;;;3.67;0.63;;;;;;;;;;4976638;28;20041;-65
2023/04/09 05:00:56;;;;;;;1.23;0.50;;;;;;;;;;4973192;28;20038;-65
2023/04/09 05:03:22;;;;;;;1.45;0.55;;;;;;;;;;4989738;28;20034;-64
2023/04/09 05:05:49;;;;;;;3.70;0.70;;;;;;;;;;4976361;28;20120;-65
2023/04/09 05:08:16;;;;;;;1.48;0.50;;;;;;;;;;4980211;28;20113;-63
2023/04/09 05:10:42;;;;;;;6.38;0.73;;;;;;;;;;4976794;28;20387;-63
2023/04/09 05:13:09;;;;;;;1.40;0.45;;;;;;;;;;4978716;28;20982;-64
2023/04/09 05:15:40;;;;;;;3.50;0.60;;;;;;;;;;4977278;28;20038;-65
2023/04/09 05:18:06;;;;;;;1.77;0.50;;;;;;;;;;4974225;28;20042;-63
2023/04/09 05:20:34;;;;;;;2.80;0.57;;;;;;;;;;4977531;28;20069;-63
2023/04/09 05:23:00;;;;;;;7.07;0.70;;;;;;;;;;4976811;28;20038;-64
2023/04/09 05:25:27;;;;;;;5.75;0.60;;;;;;;;;;4976661;28;20077;-62
2023/04/09 05:27:54;;;;;;;4.85;0.60;;;;;;;;;;4978040;28;20077;-62
2023/04/09 05:30:20;;;;;;;1.73;0.60;;;;;;;;;;4977064;28;20035;-64
2023/04/09 05:32:47;;;;;;;2.72;0.70;;;;;;;;;;4989116;28;20577;-63
2023/04/09 05:35:14;;;;;;;2.13;0.57;;;;;;;;;;4971482;28;20102;-63
2023/04/09 05:37:40;;;;;;;3.15;0.65;;;;;;;;;;4976984;28;20045;-64
2023/04/09 05:40:07;;;;;;;1.70;0.57;;;;;;;;;;4992331;28;20758;-63
2023/04/09 05:42:34;;;;;;;2.20;0.60;;;;;;;;;;4976311;28;20038;-65
2023/04/09 05:45:01;;;;;;;3.10;0.70;;;;;;;;;;4976511;28;20054;-67
2023/04/09 05:47:28;;;;;;;1.90;0.60;;;;;;;;;;4976250;28;20137;-63
2023/04/09 05:49:54;;;;;;;3.05;0.73;;;;;;;;;;4976924;28;20031;-64
2023/04/09 05:52:21;;;;;;;2.33;0.70;;;;;;;;;;4975954;28;20387;-64
2023/04/09 05:54:48;;;;;;;6.28;0.90;;;;;;;;;;4976648;28;20034;-62
2023/04/09 05:57:15;;;;;;;5.13;0.93;;;;;;;;;;4976705;28;20098;-64
2023/04/09 05:59:41;;;;;;;3.95;0.75;;;;;;;;;;4976419;28;20108;-64
2023/04/09 06:02:08;;;;;;;3.80;0.75;;;;;;;;;;4977137;28;20046;-63
2023/04/09 06:04:35;;;;;;;3.03;0.90;;;;;;;;;;4977290;28;20038;-66
2023/04/09 06:07:01;;;;;;;3.58;0.90;;;;;;;;;;4976768;28;20151;-64
2023/04/09 06:09:28;;;;;;;2.85;0.80;;;;;;;;;;4975870;28;20317;-63
2023/04/09 06:11:56;;;;;;;3.17;0.75;;;;;;;;;;4976782;28;20035;-64
2023/04/09 06:14:23;;;;;;;3.30;0.60;;;;;;;;;;4975959;28;20384;-63
2023/04/09 06:16:49;;;;;;;4.63;0.90;;;;;;;;;;4977615;28;20391;-62
2023/04/09 06:19:16;;;;;;;4.00;0.68;;;;;;;;;;4977458;28;20053;-63
2023/04/09 06:21:43;;;;;;;2.55;0.77;;;;;;;;;;4975104;28;20456;-63
2023/04/09 06:24:10;;;;;;;4.60;1.00;;;;;;;;;;4976188;28;20039;-67
2023/04/09 06:26:36;;;;;;;3.90;0.80;;;;;;;;;;4976482;28;20069;-63
2023/04/09 06:29:03;;;;;;;5.20;0.95;;;;;;;;;;4976255;28;20376;-63
2023/04/09 06:31:30;;;;;;;9.43;1.00;;;;;;;;;;4975818;28;20030;-64
2023/04/09 06:33:56;;;;;;;2.50;0.80;;;;;;;;;;4987497;28;20089;-64
2023/04/09 06:36:23;;;;;;;5.45;0.90;;;;;;;;;;4990089;28;20050;-63
2023/04/09 06:38:49;;;;;;;2.83;0.90;;;;;;;;;;4976337;28;22003;-64
2023/04/09 06:41:16;;;;;;;4.38;0.88;;;;;;;;;;4976779;28;20042;-63
2023/04/09 06:43:43;;;;;;;5.22;0.85;;;;;;;;;;4975868;28;20062;-64
2023/04/09 06:46:09;;;;;;;6.15;1.00;;;;;;;;;;4976846;28;20035;-62
2023/04/09 06:48:36;;;;;;;3.30;0.90;;;;;;;;;;4976043;28;20408;-63
2023/04/09 06:51:04;;;;;;;3.10;0.77;;;;;;;;;;4975062;28;20043;-64
2023/04/09 06:53:31;;;;;;;2.60;0.70;;;;;;;;;;4974493;28;20526;-64
2023/04/09 06:55:57;;;;;;;3.20;0.65;;;;;;;;;;4972154;28;20061;-63
2023/04/09 06:58:24;;;;;;;3.63;0.63;;;;;;;;;;4975869;28;20047;-64
2023/04/09 07:00:51;;;;;;;3.63;0.75;;;;;;;;;;4975986;28;20054;-64
2023/04/09 07:03:17;;;;;;;1.65;0.50;;;;;;;;;;4976906;28;20051;-63
2023/04/09 07:05:44;;;;;;;3.78;0.70;;;;;;;;;;4994355;28;20133;-63
2023/04/09 07:08:11;;;;;;;3.35;0.70;;;;;;;;;;4995246;28;20046;-64
2023/04/09 07:10:37;;;;;;;2.88;0.68;;;;;;;;;;4994443;28;20129;-63
2023/04/09 07:13:04;;;;;;;3.95;0.70;;;;;;;;;;4990508;28;20549;-61
2023/04/09 07:15:31;;;;;;;4.15;0.65;;;;;;;;;;4975139;28;20092;-63
2023/04/09 07:17:58;;;;;;;2.08;0.55;;;;;;;;;;4975349;28;20675;-62
2023/04/09 07:20:24;;;;;;;3.45;0.60;;;;;;;;;;4971980;28;20636;-67
2023/04/09 07:22:51;;;;;;;1.75;0.60;;;;;;;;;;4975402;28;20107;-64
2023/04/09 07:25:17;;;;;;;3.35;0.60;;;;;;;;;;4975287;28;20414;-63
2023/04/09 07:27:44;;;;;;;3.17;0.60;;;;;;;;;;4972711;28;20096;-65
2023/04/09 07:30:11;;;;;;;2.92;0.70;;;;;;;;;;4971870;28;20109;-63
2023/04/09 07:32:37;;;;;;;2.72;0.60;;;;;;;;;;4975494;28;20491;-64
2023/04/09 07:35:08;;;;;;;2.30;0.57;;;;;;;;;;4975786;28;20709;-64
2023/04/09 07:37:35;;;;;;;1.83;0.50;;;;;;;;;;4975766;28;20046;-64
2023/04/09 07:40:04;;;;;;;2.90;0.70;;;;;;;;;;4974016;28;20391;-63
2023/04/09 07:42:31;;;;;;;2.30;0.60;;;;;;;;;;4985622;28;20407;-64
2023/04/09 07:44:58;;;;;;;1.63;0.50;;;;;;;;;;4975343;28;20046;-63
2023/04/09 07:47:25;;;;;;;2.30;0.80;;;;;;;;;;4975268;28;20062;-64
2023/04/09 07:49:51;;;;;;;2.75;0.60;;;;;;;;;;4975164;28;20046;-63
2023/04/09 07:52:19;;;;;;;1.98;0.50;;;;;;;;;;4975873;28;20081;-63
2023/04/09 07:54:45;;;;;;;3.65;0.80;;;;;;;;;;4973915;28;20054;-62
2023/04/09 07:57:12;;;;;;;2.05;0.50;;;;;;;;;;4989001;28;20105;-63
2023/04/09 07:59:38;;;;;;;2.90;0.50;;;;;;;;;;4988272;28;20037;-63
2023/04/09 08:02:05;;;;;;;3.70;0.68;;;;;;;;;;4975169;28;20046;-63
2023/04/09 08:04:32;;;;;;;5.32;0.80;;;;;;;;;;4972703;28;20042;-63
2023/04/09 08:06:59;;;;;;;4.10;0.73;;;;;;;;;;4975126;28;20046;-64
2023/04/09 08:09:25;;;;;;;5.05;0.80;;;;;;;;;;4988957;28;20066;-61
2023/04/09 08:11:52;;;;;;;1.50;0.60;;;;;;;;;;4990644;28;20042;-61
2023/04/09 08:14:19;;;;;;;2.65;0.80;;;;;;;;;;4975016;28;20686;-65
2023/04/09 08:16:47;;;;;;;2.05;0.55;;;;;;;;;;4974697;28;20039;-64
2023/04/09 08:19:15;;;;;;;3.60;0.80;;;;;;;;;;4974413;28;20046;-62
2023/04/09 08:21:42;;;;;;;2.15;0.70;;;;;;;;;;4974086;28;20039;-63
2023/04/09 08:24:12;;;;;;;5.28;0.90;;;;;;;;;;4975192;28;20157;-61
2023/04/09 08:26:42;;;;;;;2.80;0.70;;;;;;;;;;4974224;28;20046;-63
2023/04/09 08:29:09;;;;;;;3.65;0.57;;;;;;;;;;4973507;28;20057;-63
2023/04/09 08:31:36;;;;;;;3.55;0.68;;;;;;;;;;4974555;28;20049;-61
2023/04/09 08:34:02;;;;;;;3.38;0.60;;;;;;;;;;4974068;28;20039;-61
2023/04/09 08:36:31;;;;;;;2.63;0.60;;;;;;;;;;4973971;28;20039;-63
2023/04/09 08:38:59;;;;;;;3.72;0.98;;;;;;;;;;4974287;28;20052;-65
2023/04/09 08:41:29;;;;;;;2.30;0.57;;;;;;;;;;4973948;28;20080;-62
2023/04/09 08:43:56;;;;;;;5.00;0.60;;;;;;;;;;4974813;28;20096;-63
2023/04/09 08:46:23;;;;;;;2.47;0.50;;;;;;;;;;4985162;28;20053;-63
2023/04/09 08:48:51;;;;;;;1.48;0.40;;;;;;;;;;4988442;28;20050;-62
2023/04/09 08:51:19;;;;;;;2.45;0.68;;;;;;;;;;4973399;28;20038;-61
2023/04/09 08:53:47;;;;;;;1.45;0.50;;;;;;;;;;4970896;28;20035;-64
2023/04/09 08:56:14;;;;;;;1.80;0.52;;;;;;;;;;4967506;28;20046;-64
2023/04/09 08:58:44;;;;;;;4.65;0.98;;;;;;;;;;4975595;28;20038;-64
2023/04/09 09:01:20;;;;;;;4.05;0.60;;;;;;;;;;4976177;28;20065;-64
2023/04/09 09:04:05;;;;;;;2.42;0.60;;;;;;;;;;4975688;28;20045;-63
2023/04/09 09:06:41;;;;;;;1.88;0.55;;;;;;;;;;4986955;28;20137;-62
2023/04/09 09:09:17;;;;;;;1.67;0.60;;;;;;;;;;4976121;28;20081;-62
2023/04/09 09:11:45;;;;;;;2.17;0.60;;;;;;;;;;4975964;28;20042;-61
2023/04/09 09:14:16;;;;;;;5.05;0.50;;;;;;;;;;4978633;28;20518;-62
2023/04/09 09:16:44;;;;;;;2.97;0.57;;;;;;;;;;4978472;28;20082;-63
2023/04/09 09:19:26;;;;;;;2.17;0.57;;;;;;;;;;4976894;28;20391;-63
2023/04/09 09:22:00;;;;;;;1.83;0.50;;;;;;;;;;4976509;28;20403;-63
2023/04/09 09:24:27;;;;;;;1.77;0.60;;;;;;;;;;4990245;28;20038;-64
2023/04/09 09:26:56;;;;;;;2.60;0.60;;;;;;;;;;4977699;28;20117;-63
2023/04/09 09:29:22;;;;;;;3.75;0.70;;;;;;;;;;4976305;28;20054;-63
2023/04/09 09:31:52;;;;;;;1.13;0.40;;;;;;;;;;4975590;28;20134;-63
2023/04/09 09:34:20;;;;;;;2.17;0.60;;;;;;;;;;4978466;28;20088;-64
2023/04/09 09:36:46;;;;;;;2.90;0.50;;;;;;;;;;4978254;28;20042;-63
2023/04/09 09:39:16;;;;;;;2.08;0.60;;;;;;;;;;4976729;28;20039;-62
2023/04/09 09:41:42;;;;;;;3.53;0.60;;;;;;;;;;4976980;28;20050;-63
2023/04/09 09:44:10;;;;;;;3.92;0.50;;;;;;;;;;4977637;28;20050;-63
2023/04/09 09:46:38;;;;;;;2.97;0.68;;;;;;;;;;4976867;28;20038;-63
2023/04/09 09:49:05;;;;;;;2.08;0.60;;;;;;;;;;4977480;28;20077;-63
2023/04/09 09:51:32;;;;;;;3.75;0.60;;;;;;;;;;4977329;28;20093;-62
2023/04/09 09:53:59;;;;;;;1.88;0.50;;;;;;;;;;4976683;28;20034;-63
2023/04/09 09:56:34;;;;;;;2.40;0.50;;;;;;;;;;4978041;28;20104;-62
2023/04/09 09:59:02;;;;;;;1.40;0.47;;;;;;;;;;4977977;28;20050;-64
2023/04/09 10:01:29;;;;;;;3.97;0.68;;;;;;;;;;4978425;28;20533;-63
2023/04/09 10:03:58;;;;;;;1.88;0.50;;;;;;;;;;4980018;28;20031;-63
2023/04/09 10:06:26;;;;;;;1.33;0.40;;;;;;;;;;4978022;28;20625;-64
2023/04/09 10:08:57;;;;;;;1.77;0.60;;;;;;;;;;4977769;28;20050;-64
2023/04/09 10:11:24;;;;;;;1.88;0.60;;;;;;;;;;4976880;28;20031;-63
2023/04/09 10:13:54;;;;;;;3.85;0.68;;;;;;;;;;4978320;28;20038;-63
2023/04/09 10:16:22;;;;;;;2.35;0.70;;;;;;;;;;4977403;28;20124;-63
2023/04/09 10:18:48;;;;;;;2.42;0.60;;;;;;;;;;4977083;28;20075;-63
2023/04/09 10:21:34;;;;;;;2.88;0.60;;;;;;;;;;4978896;28;20085;-63
2023/04/09 10:24:04;;;;;;;3.72;0.60;;;;;;;;;;4976059;28;20049;-63
2023/04/09 10:26:33;;;;;;;4.65;0.63;;;;;;;;;;4976279;28;20043;-63
2023/04/09 10:29:13;;;;;;;1.33;0.47;;;;;;;;;;4975830;28;20186;-64
2023/04/09 10:31:53;;;;;;;1.90;0.50;;;;;;;;;;4977304;28;20121;-64
2023/04/09 10:34:27;;;;;;;2.30;0.50;;;;;;;;;;4977984;28;20073;-64
2023/04/09 10:36:58;;;;;;;2.28;0.70;;;;;;;;;;4978449;28;20042;-64
2023/04/09 10:39:30;;;;;;;3.13;0.60;;;;;;;;;;4977492;28;20818;-62
2023/04/09 10:42:03;;;;;;;2.92;0.70;;;;;;;;;;4978914;28;20550;-64
2023/04/09 10:44:34;;;;;;;5.07;0.80;;;;;;;;;;4978007;28;21047;-64
2023/04/09 10:47:05;;;;;;;2.05;0.40;;;;;;;;;;4973657;28;20065;-64
2023/04/09 10:49:41;;;;;;;3.83;0.68;;;;;;;;;;4981300;28;20057;-65
2023/04/09 10:52:12;;;;;;;1.55;0.55;;;;;;;;;;4975886;28;20125;-64
2023/04/09 10:54:44;;;;;;;2.28;0.60;;;;;;;;;;4976371;28;20050;-64
2023/04/09 10:57:17;;;;;;;3.78;0.70;;;;;;;;;;4975954;28;20044;-65
2023/04/09 10:59:44;;;;;;;1.40;0.50;;;;;;;;;;4976486;28;20034;-64
2023/04/09 11:02:27;;;;;;;3.47;0.50;;;;;;;;;;4976845;28;20391;-64
2023/04/09 11:05:12;;;;;;;1.92;0.60;;;;;;;;;;4977121;28;20038;-64
2023/04/09 11:07:40;;;;;;;4.85;0.70;;;;;;;;;;4976090;28;20101;-64
2023/04/09 11:10:07;;;;;;;4.18;0.77;;;;;;;;;;4972481;28;20074;-64
2023/04/09 11:12:34;;;;;;;5.57;0.63;;;;;;;;;;4974644;28;20584;-64
2023/04/09 11:15:00;;;;;;;2.25;0.45;;;;;;;;;;4977167;28;20042;-64
2023/04/09 11:17:27;;;;;;;2.42;0.60;;;;;;;;;;4977371;28;20252;-63
2023/04/09 11:19:55;;;;;;;1.98;0.50;;;;;;;;;;4975134;28;20045;-64
2023/04/09 11:22:21;;;;;;;2.85;0.60;;;;;;;;;;4974995;28;20065;-64
2023/04/09 11:24:49;;;;;;;3.05;1.10;;;;;;;;;;4975678;28;20062;-64
2023/04/09 11:27:20;;;;;;;3.55;0.80;;;;;;;;;;4975493;28;20031;-64
2023/04/09 11:29:47;;;;;;;2.72;0.80;;;;;;;;;;4974010;28;20403;-64
2023/04/09 11:32:14;;;;;;;4.45;1.02;;;;;;;;;;4976255;28;21489;-65
2023/04/09 11:34:40;;;;;;;1.98;0.70;;;;;;;;;;4976455;28;20066;-64
2023/04/09 11:37:08;;;;;;;3.97;0.85;;;;;;;;;;4974597;28;20792;-64
2023/04/09 11:39:38;;;;;;;4.93;0.80;;;;;;;;;;4975061;28;20540;-65
2023/04/09 11:42:04;;;;;;;4.90;1.00;;;;;;;;;;4975289;28;20043;-63
2023/04/09 11:44:31;;;;;;;7.32;0.98;;;;;;;;;;4975048;28;20057;-64
2023/04/09 11:46:59;;;;;;;3.97;1.00;;;;;;;;;;4973665;28;20041;-64
2023/04/09 11:49:25;;;;;;;3.53;0.80;;;;;;;;;;4973080;28;20050;-64
2023/04/09 11:51:52;;;;;;;2.30;0.60;;;;;;;;;;4973266;28;20054;-64
2023/04/09 11:54:19;;;;;;;4.15;0.88;;;;;;;;;;4973881;28;20074;-64
2023/04/09 11:56:45;;;;;;;5.00;0.80;;;;;;;;;;4972469;28;20054;-64
2023/04/09 11:59:14;;;;;;;4.53;1.00;;;;;;;;;;4975043;28;20403;-64
2023/04/09 12:01:41;;;;;;;6.55;1.17;;;;;;;;;;4973844;28;20034;-65
2023/04/09 12:04:08;;;;;;;4.95;1.10;;;;;;;;;;4974789;28;20547;-63
2023/04/09 12:06:41;;;;;;;8.60;1.40;;;;;;;;;;4973653;28;20039;-63
2023/04/09 12:09:12;;;;;;;11.82;1.33;;;;;;;;;;4975486;28;20173;-64
2023/04/09 12:11:40;;;;;;;9.80;1.30;;;;;;;;;;4973837;28;20634;-64
2023/04/09 12:14:08;;;;;;;7.13;1.30;;;;;;;;;;4974466;28;20042;-63
2023/04/09 12:16:35;;;;;;;12.30;1.60;;;;;;;;;;4973636;28;20042;-61
2023/04/09 12:19:02;;;;;;;8.90;1.00;;;;;;;;;;4975365;28;20046;-63
2023/04/09 12:21:47;;;;;;;6.53;0.98;;;;;;;;;;4974322;28;20045;-64
2023/04/09 12:24:15;;;;;;;8.52;1.15;;;;;;;;;;4975119;28;20479;-64
2023/04/09 12:26:42;;;;;;;6.35;1.10;;;;;;;;;;4988406;28;20106;-64
2023/04/09 12:29:09;;;;;;;7.18;1.02;;;;;;;;;;4975002;28;20058;-64
2023/04/09 12:31:36;;;;;;;5.53;0.95;;;;;;;;;;4975353;28;20109;-63
2023/04/09 12:34:02;;;;;;;3.72;0.80;;;;;;;;;;4977652;28;20157;-63
2023/04/09 12:36:29;;;;;;;2.92;0.88;;;;;;;;;;4976960;28;20042;-61
2023/04/09 12:38:56;;;;;;;13.35;1.20;;;;;;;;;;4977593;28;20121;-61
2023/04/09 12:41:22;;;;;;;14.32;1.38;;;;;;;;;;4976878;28;20038;-64
2023/04/09 12:43:49;;;;;;;9.63;1.35;;;;;;;;;;4978774;28;20519;-63
2023/04/09 12:46:16;;;;;;;10.35;1.63;;;;;;;;;;4970363;28;20387;-64
2023/04/09 12:48:43;;;;;;;10.00;1.65;;;;;;;;;;4976880;28;20050;-63
2023/04/09 12:51:10;;;;;;;11.55;1.25;;;;;;;;;;4978001;28;20057;-65
2023/04/09 12:53:36;;;;;;;16.13;1.67;;;;;;;;;;4978291;28;20043;-63
2023/04/09 12:56:03;;;;;;;9.55;1.25;;;;;;;;;;4978908;28;20121;-63
2023/04/09 12:58:30;;;;;;;5.15;1.23;;;;;;;;;;4977231;28;20038;-63
2023/04/09 13:00:57;;;;;;;11.63;1.35;;;;;;;;;;4978403;28;20144;-61
2023/04/09 13:03:24;;;;;;;4.88;0.85;;;;;;;;;;4974378;28;20364;-61
2023/04/09 13:05:51;;;;;;;4.80;0.75;;;;;;;;;;4978064;28;20498;-64
2023/04/09 13:08:18;;;;;;;6.65;1.02;;;;;;;;;;4976488;28;20073;-62
2023/04/09 13:10:45;;;;;;;4.07;0.77;;;;;;;;;;4978061;28;20863;-62
2023/04/09 13:13:11;;;;;;;4.05;0.55;;;;;;;;;;4978488;28;20546;-61
2023/04/09 13:15:45;;;;;;;1.35;0.50;;;;;;;;;;4977865;28;20046;-63
2023/04/09 13:18:12;;;;;;;3.55;0.60;;;;;;;;;;4978125;28;20066;-62
2023/04/09 13:20:39;;;;;;;5.88;1.10;;;;;;;;;;4991906;28;20113;-63
2023/04/09 13:23:06;;;;;;;2.17;0.60;;;;;;;;;;4978020;28;20093;-64
2023/04/09 13:25:32;;;;;;;2.30;0.60;;;;;;;;;;4977541;28;20779;-62
2023/04/09 13:27:59;;;;;;;3.97;0.88;;;;;;;;;;4992686;28;20046;-64
2023/04/09 13:30:25;;;;;;;5.70;0.80;;;;;;;;;;4975816;28;20411;-63
2023/04/09 13:32:52;;;;;;;3.53;0.63;;;;;;;;;;4977711;28;20038;-61
2023/04/09 13:35:19;;;;;;;3.40;0.73;;;;;;;;;;4977403;28;20043;-64
2023/04/09 13:37:45;;;;;;;1.25;0.50;;;;;;;;;;4976637;28;20046;-62
2023/04/09 13:40:12;;;;;;;2.97;0.60;;;;;;;;;;4977996;28;20053;-62
2023/04/09 13:42:39;;;;;;;3.53;0.98;;;;;;;;;;4976548;28;20605;-61
2023/04/09 13:45:06;;;;;;;6.18;1.00;;;;;;;;;;4991937;28;20050;-62
2023/04/09 13:47:32;;;;;;;3.22;0.80;;;;;;;;;;4987122;28;20043;-62
2023/04/09 13:49:59;;;;;;;2.28;0.80;;;;;;;;;;4973568;28;20434;-63
2023/04/09 13:52:28;;;;;;;2.08;0.65;;;;;;;;;;4976286;28;20487;-63
2023/04/09 13:54:55;;;;;;;4.10;0.90;;;;;;;;;;4977848;28;20093;-62
2023/04/09 13:57:22;;;;;;;2.78;0.70;;;;;;;;;;4974373;28;20104;-60
2023/04/09 13:59:48;;;;;;;4.95;0.80;;;;;;;;;;4976952;28;20046;-62
2023/04/09 14:02:16;;;;;;;9.77;1.23;;;;;;;;;;4972172;28;20054;-63
2023/04/09 14:04:43;;;;;;;1.65;0.50;;;;;;;;;;4977046;28;20039;-64
2023/04/09 14:07:10;;;;;;;6.53;0.80;;;;;;;;;;4976699;28;20101;-64
2023/04/09 14:09:37;;;;;;;3.88;1.02;;;;;;;;;;4976449;28;20153;-63
2023/04/09 14:12:03;;;;;;;5.03;0.60;;;;;;;;;;4978741;28;20050;-64
2023/04/09 14:14:30;;;;;;;4.07;0.73;;;;;;;;;;4991965;28;20532;-64
2023/04/09 14:16:57;;;;;;;4.05;0.60;;;;;;;;;;4977130;28;20499;-64
2023/04/09 14:19:23;;;;;;;3.70;0.70;;;;;;;;;;4975354;28;20046;-63
2023/04/09 14:21:52;;;;;;;5.60;0.70;;;;;;;;;;4977153;28;20042;-64
2023/04/09 14:24:21;;;;;;;6.15;0.88;;;;;;;;;;4976751;28;20042;-64
2023/04/09 14:26:50;;;;;;;8.52;0.93;;;;;;;;;;4989915;28;20042;-63
2023/04/09 14:29:16;;;;;;;3.00;0.70;;;;;;;;;;4977021;28;20066;-63
2023/04/09 14:31:43;;;;;;;9.60;0.85;;;;;;;;;;4976068;28;20049;-65
2023/04/09 14:34:10;;;;;;;4.57;0.80;;;;;;;;;;4974464;28;20701;-61
2023/04/09 14:36:37;;;;;;;2.20;0.73;;;;;;;;;;4976054;28;20084;-63
2023/04/09 14:39:03;;;;;;;2.92;0.88;;;;;;;;;;4976548;28;20355;-63
2023/04/09 14:41:33;;;;;;;4.32;0.98;;;;;;;;;;4976592;28;20151;-63
2023/04/09 14:43:59;;;;;;;3.50;0.80;;;;;;;;;;4976818;28;20089;-63
2023/04/09 14:46:26;;;;;;;4.03;1.00;;;;;;;;;;4975973;28;20034;-63
2023/04/09 14:48:53;;;;;;;2.83;0.80;;;;;;;;;;4978292;28;20065;-63